This is the latest recevied weather packets stored in our database for station/object N7TUG-8. If no packets are shown the sender has not sent any weather packets the latest 10 day(s).
| Time | Temp. | Humidity | Pressure | Rain* | Wind** | Luminosity | Snow |
|---|---|---|---|---|---|---|---|
| 1777588966 | 20.56° C | 61% | 1017.1 hPa | 0 mm | 2.68 m/s, 322° | - | - |
| 1777588372 | 20.56° C | 61% | 1017.1 hPa | 0 mm | 2.68 m/s, 324° | - | - |
| 1777588116 | 21.11° C | 61% | 1017.2 hPa | 0 mm | 1.79 m/s, 313° | - | - |
| 1777587647 | 20.56° C | 61% | 1017.2 hPa | 0 mm | 2.68 m/s, 317° | - | - |
| 1777587321 | 21.11° C | 61% | 1017.3 hPa | 0 mm | 2.24 m/s, 313° | - | - |
| 1777586902 | 20.56° C | 63% | 1017.3 hPa | 0 mm | 3.13 m/s, 313° | - | - |
| 1777586371 | 20.56° C | 63% | 1017.4 hPa | 0 mm | 3.13 m/s, 317° | - | - |
| 1777586182 | 20.56° C | 63% | 1017.4 hPa | 0 mm | 3.13 m/s, 317° | - | - |
| 1777585546 | 20.56° C | 64% | 1017.5 hPa | 0 mm | 2.68 m/s, 320° | - | - |
| 1777584612 | 20° C | 65% | 1017.7 hPa | 0 mm | 3.13 m/s, 300° | - | - |
| 1777583812 | 20° C | 63% | 1017.9 hPa | 0 mm | 3.13 m/s, 301° | - | - |
| 1777582911 | 20° C | 64% | 1018.1 hPa | 0 mm | 1.79 m/s, 327° | - | - |
| 1777582202 | 19.44° C | 65% | 1018.2 hPa | 0 mm | 1.34 m/s, 272° | - | - |
| 1777582076 | 19.44° C | 65% | 1018.2 hPa | 0 mm | 1.34 m/s, 272° | - | - |
| 1777581136 | 20° C | 64% | 1018.4 hPa | 0 mm | 2.24 m/s, 297° | - | - |
| 1777580281 | 20° C | 64% | 1018.5 hPa | 0 mm | 1.34 m/s, 263° | - | - |
| 1777579486 | 19.44° C | 64% | 1018.5 hPa | 0 mm | 2.24 m/s, 306° | - | - |
| 1777579057 | 20° C | 64% | 1018.6 hPa | 0 mm | 1.34 m/s, 320° | - | - |
| 1777578666 | 18.89° C | 66% | 1018.6 hPa | 0 mm | 2.24 m/s, 338° | - | - |
| 1777578327 | 18.33° C | 67% | 1018.6 hPa | 0 mm | 2.24 m/s, 342° | - | - |
| 1777577706 | 18.33° C | 68% | 1018.9 hPa | 0 mm | 2.24 m/s, 325° | - | - |
| 1777577557 | 18.33° C | 68% | 1018.9 hPa | 0 mm | 2.24 m/s, 325° | - | - |
| 1777576846 | 18.33° C | 68% | 1019 hPa | 0 mm | 2.24 m/s, 325° | - | - |
| 1777576016 | 17.78° C | 68% | 1019.2 hPa | 0 mm | 2.24 m/s, 332° | - | - |
| 1777575912 | 17.78° C | 67% | 1019.2 hPa | 0 mm | 2.24 m/s, 344° | - | - |
* Rain latest hour (hover to see other rain measurements)
** Current wind speed in m/s (hover to see current wind gust speed)